createdAt,value
2022-11-14T00:00:34.782Z,18.90
2022-11-14T00:03:20.246Z,20.65
2022-11-14T00:06:07.319Z,20.38
2022-11-14T00:08:52.414Z,22.65
2022-11-14T00:11:37.910Z,17.67
2022-11-14T00:14:23.462Z,18.92
2022-11-14T00:17:10.235Z,19.00
2022-11-14T00:19:55.759Z,21.25
2022-11-14T00:22:41.231Z,21.48
2022-11-14T00:25:26.468Z,19.30
2022-11-14T00:28:12.160Z,18.95
2022-11-14T00:30:57.310Z,21.50
2022-11-14T00:33:44.195Z,18.90
2022-11-14T00:36:29.690Z,21.00
2022-11-14T00:39:15.587Z,22.63
2022-11-14T00:42:01.255Z,19.73
2022-11-14T00:44:46.580Z,21.67
2022-11-14T00:47:31.854Z,21.92
2022-11-14T00:50:18.613Z,23.83
2022-11-14T00:53:04.773Z,22.05
2022-11-14T00:55:50.115Z,23.08
2022-11-14T00:58:35.589Z,22.42
2022-11-14T01:01:21.254Z,22.10
2022-11-14T01:04:06.509Z,23.60
2022-11-14T01:06:53.118Z,22.38
2022-11-14T01:09:38.811Z,24.73
2022-11-14T01:12:23.993Z,24.33
2022-11-14T01:15:10.424Z,21.05
2022-11-14T01:17:55.887Z,21.55
2022-11-14T01:20:42.082Z,21.10
2022-11-14T01:23:28.693Z,21.65
2022-11-14T01:26:14.926Z,21.98
2022-11-14T01:29:00.053Z,25.17
2022-11-14T01:31:45.628Z,24.70
2022-11-14T01:34:31.166Z,20.83
2022-11-14T01:37:16.439Z,21.70
2022-11-14T01:40:03.389Z,24.15
2022-11-14T01:43:23.136Z,25.17
2022-11-14T01:46:13.341Z,21.38
2022-11-14T01:49:02.530Z,21.55
2022-11-14T01:51:51.347Z,22.98
2022-11-14T01:54:41.421Z,20.25
2022-11-14T01:57:31.226Z,20.65
2022-11-14T02:00:16.891Z,21.45
2022-11-14T02:03:03.971Z,23.20
2022-11-14T02:05:51.068Z,19.05
2022-11-14T02:11:22.511Z,20.58
2022-11-14T02:14:09.589Z,19.02
2022-11-14T02:17:14.749Z,21.40
2022-11-14T02:20:08.250Z,24.48
2022-11-14T02:22:53.797Z,23.95
2022-11-14T02:25:40.108Z,25.27
2022-11-14T02:28:25.791Z,22.80
2022-11-14T02:31:11.235Z,21.13
2022-11-14T02:33:56.587Z,20.45
2022-11-14T02:36:43.120Z,21.88
2022-11-14T02:39:28.575Z,22.85
2022-11-14T02:42:13.976Z,24.65
2022-11-14T02:44:59.839Z,22.40
2022-11-14T02:47:45.139Z,21.52
2022-11-14T02:50:31.057Z,24.70
2022-11-14T02:53:18.044Z,21.85
2022-11-14T02:56:03.933Z,21.95
2022-11-14T02:58:49.372Z,20.17
2022-11-14T03:01:34.745Z,22.02
2022-11-14T03:04:20.041Z,21.23
2022-11-14T03:07:05.499Z,20.85
2022-11-14T03:09:52.286Z,21.50
2022-11-14T03:12:38.120Z,22.60
2022-11-14T03:15:24.345Z,22.40
2022-11-14T03:18:09.548Z,19.25
2022-11-14T03:20:55.432Z,21.10
2022-11-14T03:23:40.792Z,20.88
2022-11-14T03:26:27.446Z,19.20
2022-11-14T03:29:13.074Z,21.05
2022-11-14T03:31:58.491Z,24.90
2022-11-14T03:34:43.751Z,19.58
2022-11-14T03:37:29.160Z,20.48
2022-11-14T03:40:14.778Z,19.25
2022-11-14T03:43:01.617Z,19.83
2022-11-14T03:45:47.477Z,21.90
2022-11-14T03:48:33.112Z,20.95
2022-11-14T03:51:18.630Z,20.85
2022-11-14T03:54:07.052Z,21.33
2022-11-14T03:56:52.327Z,21.77
2022-11-14T03:59:39.456Z,20.20
2022-11-14T04:02:24.859Z,19.83
2022-11-14T04:05:10.556Z,22.80
2022-11-14T04:07:55.583Z,22.52
2022-11-14T04:10:41.514Z,20.92
2022-11-14T04:13:26.941Z,20.83
2022-11-14T04:16:13.610Z,21.52
2022-11-14T04:18:59.246Z,25.83
2022-11-14T04:21:44.468Z,25.42
2022-11-14T04:24:29.630Z,22.70
2022-11-14T04:27:14.897Z,25.80
2022-11-14T04:30:00.918Z,24.20
2022-11-14T04:32:49.429Z,26.15
2022-11-14T04:35:34.722Z,24.50
2022-11-14T04:38:20.168Z,24.88
2022-11-14T04:41:05.549Z,24.02
2022-11-14T04:43:51.157Z,24.95
2022-11-14T04:46:36.951Z,24.73
2022-11-14T04:49:23.931Z,23.85
2022-11-14T04:52:09.122Z,25.13
2022-11-14T04:54:54.672Z,26.02
2022-11-14T04:57:40.123Z,26.35
2022-11-14T05:00:26.059Z,25.67
2022-11-14T05:03:11.308Z,23.90
2022-11-14T05:06:02.220Z,23.52
2022-11-14T05:08:48.695Z,27.52
2022-11-14T05:11:34.256Z,25.17
2022-11-14T05:14:19.743Z,23.30
2022-11-14T05:17:05.058Z,23.55
2022-11-14T05:19:50.773Z,23.50
2022-11-14T05:22:37.436Z,25.85
2022-11-14T05:25:23.379Z,22.58
2022-11-14T05:28:08.427Z,21.58
2022-11-14T05:31:00.304Z,20.50
2022-11-14T05:33:46.647Z,21.63
2022-11-14T05:36:31.971Z,22.17
2022-11-14T05:39:19.421Z,21.30
2022-11-14T05:42:05.195Z,24.00
2022-11-14T05:44:50.715Z,25.83
2022-11-14T05:47:36.122Z,21.98
2022-11-14T05:50:21.391Z,21.80
2022-11-14T05:53:06.912Z,25.15
2022-11-14T05:55:53.999Z,22.67
2022-11-14T05:58:40.021Z,21.83
2022-11-14T06:01:25.108Z,23.60
2022-11-14T06:04:13.380Z,22.83
2022-11-14T06:06:59.065Z,22.23
2022-11-14T06:09:44.035Z,24.73
2022-11-14T06:12:31.888Z,23.35
2022-11-14T06:15:17.421Z,22.88
2022-11-14T06:18:02.854Z,29.08
2022-11-14T06:20:48.232Z,24.83
2022-11-14T06:23:34.126Z,22.92
2022-11-14T06:26:22.660Z,24.33
2022-11-14T06:29:10.616Z,24.10
2022-11-14T06:31:56.356Z,28.60
2022-11-14T06:34:41.940Z,24.45
2022-11-14T06:37:31.364Z,26.23
2022-11-14T06:40:19.061Z,32.17
2022-11-14T06:43:04.560Z,35.45
2022-11-14T06:45:53.687Z,24.30
2022-11-14T06:48:39.956Z,25.23
2022-11-14T06:51:25.543Z,25.33
2022-11-14T06:54:11.638Z,28.30
2022-11-14T06:56:56.966Z,23.27
2022-11-14T06:59:42.247Z,22.40
2022-11-14T07:02:32.048Z,23.00
2022-11-14T07:05:17.305Z,25.02
2022-11-14T07:08:02.495Z,26.35
2022-11-14T07:10:47.941Z,23.45
2022-11-14T07:13:34.666Z,22.70
2022-11-14T07:16:21.273Z,27.35
2022-11-14T07:19:09.883Z,23.55
2022-11-14T07:21:55.294Z,27.52
2022-11-14T07:24:41.018Z,22.73
2022-11-14T07:27:26.260Z,22.92
2022-11-14T07:30:12.563Z,25.35
2022-11-14T07:32:58.626Z,37.45
2022-11-14T07:35:45.283Z,26.45
2022-11-14T07:38:30.870Z,27.48
2022-11-14T07:41:16.957Z,28.95
2022-11-14T07:44:02.178Z,24.98
2022-11-14T07:46:47.599Z,72.78
2022-11-14T07:49:32.844Z,72.13
2022-11-14T07:52:20.306Z,29.15
2022-11-14T07:55:06.808Z,42.85
2022-11-14T07:57:55.732Z,23.40
2022-11-14T08:00:41.189Z,27.80
2022-11-14T08:03:26.611Z,23.80
2022-11-14T08:06:13.983Z,24.48
2022-11-14T08:09:01.021Z,25.90
2022-11-14T08:11:49.283Z,25.58
2022-11-14T08:14:34.667Z,26.08
2022-11-14T08:17:20.924Z,24.40
2022-11-14T08:20:08.463Z,22.13
2022-11-14T08:22:54.339Z,26.50
2022-11-14T08:25:42.116Z,24.67
2022-11-14T08:28:27.968Z,24.15
2022-11-14T08:31:14.451Z,27.33
2022-11-14T08:33:59.864Z,28.50
2022-11-14T08:36:45.175Z,32.65
2022-11-14T08:39:30.352Z,22.95
2022-11-14T08:42:17.346Z,24.25
2022-11-14T08:45:03.286Z,24.02
2022-11-14T08:47:52.286Z,25.67
2022-11-14T08:50:38.047Z,29.63
2022-11-14T08:53:24.100Z,25.27
2022-11-14T08:56:10.822Z,26.08
2022-11-14T08:58:57.583Z,24.33
2022-11-14T09:01:43.282Z,25.60
2022-11-14T09:04:29.191Z,24.85
2022-11-14T09:07:14.878Z,25.30
2022-11-14T09:10:00.111Z,26.80
2022-11-14T09:12:48.097Z,29.63
2022-11-14T09:15:35.019Z,27.52
2022-11-14T09:18:20.699Z,25.08
2022-11-14T09:21:08.676Z,23.58
2022-11-14T09:23:58.796Z,24.27
2022-11-14T09:26:45.966Z,25.40
2022-11-14T09:29:31.189Z,32.35
2022-11-14T09:32:18.235Z,36.55
2022-11-14T09:35:04.254Z,33.15
2022-11-14T09:37:49.456Z,28.08
2022-11-14T09:40:49.446Z,22.73
2022-11-14T09:43:47.736Z,17.08
2022-11-14T09:46:37.307Z,14.85
2022-11-14T09:49:30.105Z,14.60
2022-11-14T09:52:25.795Z,13.82
2022-11-14T09:55:13.593Z,13.98
2022-11-14T09:58:01.145Z,12.93
2022-11-14T10:03:50.298Z,13.57
2022-11-14T10:06:46.444Z,13.90
2022-11-14T10:09:44.433Z,14.27
2022-11-14T10:12:42.616Z,16.08
2022-11-14T10:15:36.316Z,16.30
2022-11-14T10:18:45.719Z,14.15
2022-11-14T10:21:56.352Z,14.52
2022-11-14T10:25:04.727Z,14.55
2022-11-14T10:28:05.428Z,27.88
2022-11-14T10:30:59.971Z,23.02
2022-11-14T10:33:59.858Z,13.18
2022-11-14T10:36:57.552Z,12.68
2022-11-14T10:39:49.138Z,12.95
2022-11-14T10:42:39.543Z,12.30
2022-11-14T10:45:28.619Z,13.57
2022-11-14T10:48:20.127Z,12.25
2022-11-14T10:51:13.529Z,12.23
2022-11-14T10:54:04.519Z,12.02
2022-11-14T10:56:52.025Z,12.35
2022-11-14T10:59:38.971Z,11.07
2022-11-14T11:02:24.350Z,12.95
2022-11-14T11:05:14.948Z,11.50
2022-11-14T11:11:31.742Z,12.20
2022-11-14T11:14:18.898Z,12.40
2022-11-14T11:17:23.060Z,11.52
2022-11-14T11:20:26.746Z,11.93
2022-11-14T11:23:22.128Z,12.27
2022-11-14T11:26:09.801Z,11.57
2022-11-14T11:29:05.278Z,14.52
2022-11-14T11:31:52.832Z,11.98
2022-11-14T11:34:40.199Z,12.18
2022-11-14T11:40:21.457Z,11.23
2022-11-14T11:46:25.023Z,12.93
2022-11-14T11:49:15.982Z,12.35
2022-11-14T11:52:10.787Z,13.68
2022-11-14T11:55:02.498Z,15.48
2022-11-14T11:57:55.323Z,12.55
2022-11-14T12:00:40.777Z,13.52
2022-11-14T12:03:26.956Z,13.10
2022-11-14T12:06:16.560Z,12.43
2022-11-14T12:09:16.010Z,15.52
2022-11-14T12:12:06.699Z,12.55
2022-11-14T12:15:04.839Z,13.60
2022-11-14T12:18:16.672Z,12.23
2022-11-14T12:21:25.325Z,13.90
2022-11-14T12:24:37.680Z,15.15
2022-11-14T12:27:33.987Z,18.77
2022-11-14T12:30:24.150Z,13.73
2022-11-14T12:33:12.965Z,12.50
2022-11-14T12:36:01.915Z,13.13
2022-11-14T12:38:50.448Z,13.65
2022-11-14T12:41:39.490Z,13.00
2022-11-14T12:44:37.219Z,13.60
2022-11-14T12:47:24.529Z,16.75
2022-11-14T12:53:43.018Z,12.25
2022-11-14T12:57:31.447Z,11.55
2022-11-14T13:00:18.513Z,15.52
2022-11-14T13:03:26.362Z,22.00
2022-11-14T13:06:21.902Z,17.63
2022-11-14T13:09:37.015Z,12.98
2022-11-14T13:12:50.629Z,13.32
2022-11-14T13:16:07.139Z,14.63
2022-11-14T13:19:19.352Z,13.02
2022-11-14T13:22:32.781Z,12.80
2022-11-14T13:25:21.229Z,14.95
2022-11-14T13:28:39.850Z,17.35
2022-11-14T13:31:43.834Z,18.88
2022-11-14T13:34:35.219Z,14.13
2022-11-14T13:37:36.353Z,16.27
2022-11-14T13:40:28.525Z,14.82
2022-11-14T13:43:20.425Z,14.40
2022-11-14T13:46:17.360Z,14.30
2022-11-14T13:58:14.190Z,14.98
2022-11-14T14:01:31.329Z,14.10
2022-11-14T14:04:28.869Z,13.55
2022-11-14T14:07:25.149Z,14.35
2022-11-14T14:10:24.534Z,14.82
2022-11-14T14:13:26.574Z,16.05
2022-11-14T14:16:25.494Z,14.63
2022-11-14T14:19:23.021Z,15.90
2022-11-14T14:22:20.456Z,15.00
2022-11-14T14:25:15.474Z,16.30
2022-11-14T14:28:10.842Z,28.10
2022-11-14T14:31:14.816Z,61.45
2022-11-14T14:34:00.105Z,16.15
2022-11-14T14:36:50.796Z,18.17
2022-11-14T14:39:36.388Z,19.23
2022-11-14T14:42:21.886Z,18.77
2022-11-14T14:45:16.373Z,16.73
2022-11-14T14:48:06.821Z,17.42
2022-11-14T14:50:55.106Z,20.70
2022-11-14T14:53:51.933Z,19.58
2022-11-14T14:56:37.645Z,26.20
2022-11-14T14:59:25.214Z,20.17
2022-11-14T15:02:15.470Z,25.63
2022-11-14T15:05:03.859Z,25.23
2022-11-14T15:07:51.059Z,23.00
2022-11-14T15:13:23.861Z,26.92
2022-11-14T15:16:10.872Z,22.83
2022-11-14T15:18:58.148Z,23.17
2022-11-14T15:21:44.925Z,22.95
2022-11-14T15:24:30.826Z,24.42
2022-11-14T15:27:18.035Z,23.23
2022-11-14T15:30:06.191Z,22.98
2022-11-14T15:32:53.785Z,22.92
2022-11-14T15:38:43.444Z,22.55
2022-11-14T15:41:30.616Z,23.20
2022-11-14T15:44:29.944Z,25.60
2022-11-14T15:47:21.996Z,21.88
2022-11-14T15:50:25.792Z,23.98
2022-11-14T15:53:22.632Z,22.30
2022-11-14T15:56:12.707Z,22.23
2022-11-14T15:58:58.863Z,21.52
2022-11-14T16:01:46.786Z,22.42
2022-11-14T16:04:34.253Z,25.65
2022-11-14T16:10:14.579Z,21.73
2022-11-14T16:13:01.644Z,20.42
2022-11-14T16:15:47.254Z,23.80
2022-11-14T16:18:32.733Z,20.35
2022-11-14T16:21:18.748Z,25.52
2022-11-14T16:24:05.067Z,24.75
2022-11-14T16:26:50.708Z,21.38
2022-11-14T16:29:37.744Z,20.10
2022-11-14T16:32:23.563Z,21.77
2022-11-14T16:35:13.563Z,23.15
2022-11-14T16:37:59.389Z,20.40
2022-11-14T16:40:44.769Z,27.38
2022-11-14T16:43:30.284Z,25.48
2022-11-14T16:46:17.625Z,25.77
2022-11-14T16:49:04.170Z,20.38
2022-11-14T16:51:52.095Z,26.05
2022-11-14T16:54:37.591Z,21.83
2022-11-14T16:57:23.043Z,21.60
2022-11-14T17:00:11.221Z,20.25
2022-11-14T17:02:58.322Z,20.63
2022-11-14T17:05:44.006Z,18.45
2022-11-14T17:08:29.273Z,18.65
2022-11-14T17:11:14.908Z,17.15
2022-11-14T17:14:00.503Z,16.67
2022-11-14T17:16:46.716Z,17.10
2022-11-14T17:19:34.015Z,15.98
2022-11-14T17:22:22.743Z,16.00
2022-11-14T17:25:08.646Z,14.65
2022-11-14T17:27:54.504Z,16.58
2022-11-14T17:30:41.135Z,16.52
2022-11-14T17:33:26.793Z,16.88
2022-11-14T17:36:14.167Z,16.52
2022-11-14T17:41:45.137Z,18.48
2022-11-14T17:44:30.804Z,19.58
2022-11-14T17:47:16.043Z,18.80
2022-11-14T17:50:01.671Z,18.95
2022-11-14T17:52:48.670Z,18.73
2022-11-14T17:55:34.090Z,22.45
2022-11-14T18:01:35.105Z,20.55
2022-11-14T18:04:20.419Z,22.83
2022-11-14T18:07:06.032Z,19.17
2022-11-14T18:09:52.644Z,26.55
2022-11-14T18:12:37.886Z,18.33
2022-11-14T18:15:27.799Z,19.27
2022-11-14T18:18:13.919Z,19.80
2022-11-14T18:20:59.784Z,19.63
2022-11-14T18:23:50.705Z,21.23
2022-11-14T18:26:37.845Z,23.58
2022-11-14T18:29:23.836Z,17.92
2022-11-14T18:32:09.417Z,19.35
2022-11-14T18:34:54.999Z,19.42
2022-11-14T18:37:40.624Z,19.60
2022-11-14T18:40:26.339Z,17.77
2022-11-14T18:43:13.149Z,20.33
2022-11-14T18:46:04.867Z,18.48
2022-11-14T18:48:54.060Z,19.13
2022-11-14T18:51:44.097Z,19.65
2022-11-14T18:54:29.404Z,21.02
2022-11-14T18:57:15.001Z,20.27
2022-11-14T19:00:02.123Z,19.58
2022-11-14T19:02:49.723Z,21.00
2022-11-14T19:08:20.640Z,19.83
2022-11-14T19:11:08.370Z,18.27
2022-11-14T19:16:40.168Z,19.27
2022-11-14T19:19:25.746Z,19.80
2022-11-14T19:22:11.179Z,20.40
2022-11-14T19:24:57.898Z,23.10
2022-11-14T19:27:43.147Z,20.80
2022-11-14T19:30:28.316Z,19.92
2022-11-14T19:33:15.319Z,19.63
2022-11-14T19:36:05.451Z,25.77
2022-11-14T19:38:53.902Z,20.55
2022-11-14T19:41:39.222Z,18.08
2022-11-14T19:44:24.829Z,22.35
2022-11-14T19:47:10.176Z,20.50
2022-11-14T19:49:56.864Z,19.85
2022-11-14T19:52:42.430Z,25.98
2022-11-14T19:55:27.638Z,19.63
2022-11-14T19:58:13.244Z,20.10
2022-11-14T20:01:02.258Z,14.60
2022-11-14T20:03:50.656Z,17.80
2022-11-14T20:06:37.293Z,16.75
2022-11-14T20:09:22.882Z,17.58
2022-11-14T20:12:08.390Z,14.77
2022-11-14T20:14:53.950Z,16.65
2022-11-14T20:17:39.252Z,15.52
2022-11-14T20:20:24.635Z,15.90
2022-11-14T20:23:11.898Z,14.10
2022-11-14T20:25:57.342Z,14.75
2022-11-14T20:28:44.922Z,14.07
2022-11-14T20:31:30.782Z,20.48
2022-11-14T20:34:16.119Z,14.00
2022-11-14T20:37:10.978Z,15.38
2022-11-14T20:39:57.976Z,13.70
2022-11-14T20:42:47.287Z,13.88
2022-11-14T20:45:32.912Z,13.85
2022-11-14T20:48:18.504Z,15.15
2022-11-14T20:51:05.088Z,14.60
2022-11-14T20:53:51.750Z,14.57
2022-11-14T20:56:38.981Z,14.70
2022-11-14T20:59:24.577Z,15.18
2022-11-14T21:02:11.448Z,18.45
2022-11-14T21:04:56.710Z,16.60
2022-11-14T21:07:42.142Z,15.40
2022-11-14T21:10:45.708Z,15.45
2022-11-14T21:13:53.609Z,16.67
2022-11-14T21:16:40.113Z,12.80
2022-11-14T21:19:26.297Z,14.98
2022-11-14T21:22:11.497Z,15.10
2022-11-14T21:24:57.335Z,13.70
2022-11-14T21:27:43.523Z,20.33
2022-11-14T21:30:32.328Z,15.70
2022-11-14T21:33:17.684Z,14.07
2022-11-14T21:36:22.899Z,14.25
2022-11-14T21:39:15.684Z,14.52
2022-11-14T21:42:02.237Z,14.20
2022-11-14T21:44:47.806Z,15.82
2022-11-14T21:47:34.952Z,16.42
2022-11-14T21:50:22.592Z,16.48
2022-11-14T21:53:16.348Z,15.05
2022-11-14T21:56:08.033Z,15.85
2022-11-14T21:59:12.822Z,17.33
2022-11-14T22:05:04.536Z,14.32
2022-11-14T22:07:50.312Z,15.75
2022-11-14T22:10:35.639Z,18.20
2022-11-14T22:13:21.337Z,17.25
2022-11-14T22:16:07.685Z,23.63
2022-11-14T22:18:53.198Z,15.90
2022-11-14T22:21:40.039Z,13.70
2022-11-14T22:24:25.573Z,17.55
2022-11-14T22:27:10.777Z,16.67
2022-11-14T22:29:56.345Z,15.82
2022-11-14T22:32:41.746Z,16.30
2022-11-14T22:35:27.333Z,16.05
2022-11-14T22:38:13.856Z,16.55
2022-11-14T22:40:59.755Z,16.27
2022-11-14T22:43:46.093Z,17.30
2022-11-14T22:46:31.498Z,16.40
2022-11-14T22:49:20.908Z,16.48
2022-11-14T22:52:06.765Z,18.75
2022-11-14T22:54:53.822Z,20.02
2022-11-14T22:57:39.340Z,17.88
2022-11-14T23:00:24.803Z,17.65
2022-11-14T23:03:10.335Z,18.67
2022-11-14T23:05:55.641Z,17.98
2022-11-14T23:08:41.674Z,18.08
2022-11-14T23:11:30.944Z,18.45
2022-11-14T23:14:16.577Z,17.35
2022-11-14T23:17:01.709Z,19.35
2022-11-14T23:19:47.245Z,18.27
2022-11-14T23:22:32.560Z,19.63
2022-11-14T23:25:18.449Z,18.45
2022-11-14T23:28:05.652Z,18.30
2022-11-14T23:30:51.215Z,18.77
2022-11-14T23:33:36.630Z,19.80
2022-11-14T23:36:22.164Z,17.10
2022-11-14T23:39:07.756Z,21.05
2022-11-14T23:41:53.277Z,22.48
2022-11-14T23:44:40.243Z,17.85
2022-11-14T23:47:25.760Z,17.77
2022-11-14T23:50:11.242Z,19.98
2022-11-14T23:52:56.800Z,19.08
2022-11-14T23:55:42.354Z,22.92
2022-11-14T23:58:29.304Z,19.92
